sensor_id;sensor_type;location;lat;lon;timestamp;P1;durP1;ratioP1;P2;durP2;ratioP2
31618;SDS011;18230;51.502;7.108;2023-05-29T00:03:34;7.90;;;3.25;;
31618;SDS011;18230;51.502;7.108;2023-05-29T00:08:35;8.45;;;2.70;;
31618;SDS011;18230;51.502;7.108;2023-05-29T00:13:36;9.15;;;3.60;;
31618;SDS011;18230;51.502;7.108;2023-05-29T00:18:37;9.05;;;3.47;;
31618;SDS011;18230;51.502;7.108;2023-05-29T00:23:45;7.57;;;2.85;;
31618;SDS011;18230;51.502;7.108;2023-05-29T00:28:46;8.52;;;3.40;;
31618;SDS011;18230;51.502;7.108;2023-05-29T00:33:46;9.95;;;3.22;;
31618;SDS011;18230;51.502;7.108;2023-05-29T00:38:47;10.23;;;3.53;;
31618;SDS011;18230;51.502;7.108;2023-05-29T00:43:48;11.65;;;4.45;;
31618;SDS011;18230;51.502;7.108;2023-05-29T00:48:48;10.65;;;3.53;;
31618;SDS011;18230;51.502;7.108;2023-05-29T00:53:50;9.02;;;3.67;;
31618;SDS011;18230;51.502;7.108;2023-05-29T00:58:52;11.75;;;3.78;;
31618;SDS011;18230;51.502;7.108;2023-05-29T01:03:54;13.45;;;3.70;;
31618;SDS011;18230;51.502;7.108;2023-05-29T01:08:57;12.98;;;3.30;;
31618;SDS011;18230;51.502;7.108;2023-05-29T01:13:59;16.33;;;4.03;;
31618;SDS011;18230;51.502;7.108;2023-05-29T01:24:26;13.10;;;3.90;;
31618;SDS011;18230;51.502;7.108;2023-05-29T01:29:39;13.07;;;4.07;;
31618;SDS011;18230;51.502;7.108;2023-05-29T01:34:42;13.45;;;3.33;;
31618;SDS011;18230;51.502;7.108;2023-05-29T01:39:43;14.68;;;3.67;;
31618;SDS011;18230;51.502;7.108;2023-05-29T01:44:44;13.02;;;3.80;;
31618;SDS011;18230;51.502;7.108;2023-05-29T01:49:45;21.20;;;4.30;;
31618;SDS011;18230;51.502;7.108;2023-05-29T01:54:50;17.65;;;4.03;;
31618;SDS011;18230;51.502;7.108;2023-05-29T01:59:50;20.63;;;3.85;;
31618;SDS011;18230;51.502;7.108;2023-05-29T02:04:51;19.50;;;3.70;;
31618;SDS011;18230;51.502;7.108;2023-05-29T02:09:53;22.60;;;4.82;;
31618;SDS011;18230;51.502;7.108;2023-05-29T02:14:54;19.83;;;4.15;;
31618;SDS011;18230;51.502;7.108;2023-05-29T02:19:54;21.17;;;3.65;;
31618;SDS011;18230;51.502;7.108;2023-05-29T02:24:55;19.75;;;4.03;;
31618;SDS011;18230;51.502;7.108;2023-05-29T02:29:56;22.63;;;4.03;;
31618;SDS011;18230;51.502;7.108;2023-05-29T02:34:57;24.75;;;3.53;;
31618;SDS011;18230;51.502;7.108;2023-05-29T02:39:58;24.75;;;3.58;;
31618;SDS011;18230;51.502;7.108;2023-05-29T02:44:59;19.33;;;4.03;;
31618;SDS011;18230;51.502;7.108;2023-05-29T02:50:00;21.17;;;4.32;;
31618;SDS011;18230;51.502;7.108;2023-05-29T02:55:01;21.48;;;4.05;;
31618;SDS011;18230;51.502;7.108;2023-05-29T03:00:04;22.10;;;4.10;;
31618;SDS011;18230;51.502;7.108;2023-05-29T03:05:06;20.83;;;3.67;;
31618;SDS011;18230;51.502;7.108;2023-05-29T03:10:07;24.77;;;4.72;;
31618;SDS011;18230;51.502;7.108;2023-05-29T03:15:09;22.38;;;3.60;;
31618;SDS011;18230;51.502;7.108;2023-05-29T03:20:10;20.48;;;3.60;;
31618;SDS011;18230;51.502;7.108;2023-05-29T03:25:11;23.52;;;4.05;;
31618;SDS011;18230;51.502;7.108;2023-05-29T03:30:12;24.38;;;4.28;;
31618;SDS011;18230;51.502;7.108;2023-05-29T03:35:13;24.73;;;5.18;;
31618;SDS011;18230;51.502;7.108;2023-05-29T03:40:14;28.85;;;4.78;;
31618;SDS011;18230;51.502;7.108;2023-05-29T03:45:15;18.98;;;3.90;;
31618;SDS011;18230;51.502;7.108;2023-05-29T03:50:15;24.52;;;4.03;;
31618;SDS011;18230;51.502;7.108;2023-05-29T03:55:16;20.13;;;4.10;;
31618;SDS011;18230;51.502;7.108;2023-05-29T04:00:17;20.65;;;4.75;;
31618;SDS011;18230;51.502;7.108;2023-05-29T04:05:18;23.92;;;3.90;;
31618;SDS011;18230;51.502;7.108;2023-05-29T04:10:18;18.20;;;3.65;;
31618;SDS011;18230;51.502;7.108;2023-05-29T04:15:19;23.83;;;4.28;;
31618;SDS011;18230;51.502;7.108;2023-05-29T04:20:21;24.92;;;4.82;;
31618;SDS011;18230;51.502;7.108;2023-05-29T04:25:22;21.10;;;3.92;;
31618;SDS011;18230;51.502;7.108;2023-05-29T04:30:23;19.05;;;4.10;;
31618;SDS011;18230;51.502;7.108;2023-05-29T04:35:23;26.02;;;4.38;;
31618;SDS011;18230;51.502;7.108;2023-05-29T04:40:24;26.23;;;4.75;;
31618;SDS011;18230;51.502;7.108;2023-05-29T04:45:25;30.10;;;4.65;;
31618;SDS011;18230;51.502;7.108;2023-05-29T04:50:26;24.25;;;4.82;;
31618;SDS011;18230;51.502;7.108;2023-05-29T04:55:30;20.33;;;4.20;;
31618;SDS011;18230;51.502;7.108;2023-05-29T05:00:30;28.00;;;4.53;;
31618;SDS011;18230;51.502;7.108;2023-05-29T05:05:31;28.65;;;4.68;;
31618;SDS011;18230;51.502;7.108;2023-05-29T05:10:33;27.63;;;4.72;;
31618;SDS011;18230;51.502;7.108;2023-05-29T05:15:33;20.42;;;4.07;;
31618;SDS011;18230;51.502;7.108;2023-05-29T05:20:34;29.52;;;4.95;;
31618;SDS011;18230;51.502;7.108;2023-05-29T05:25:36;21.52;;;4.43;;
31618;SDS011;18230;51.502;7.108;2023-05-29T05:30:37;23.65;;;4.47;;
31618;SDS011;18230;51.502;7.108;2023-05-29T05:35:37;27.20;;;4.35;;
31618;SDS011;18230;51.502;7.108;2023-05-29T05:40:38;23.75;;;4.80;;
31618;SDS011;18230;51.502;7.108;2023-05-29T05:45:39;19.13;;;3.83;;
31618;SDS011;18230;51.502;7.108;2023-05-29T05:50:42;22.98;;;4.43;;
31618;SDS011;18230;51.502;7.108;2023-05-29T05:55:43;14.40;;;4.15;;
31618;SDS011;18230;51.502;7.108;2023-05-29T06:00:43;20.23;;;3.85;;
31618;SDS011;18230;51.502;7.108;2023-05-29T06:05:44;22.42;;;4.00;;
31618;SDS011;18230;51.502;7.108;2023-05-29T06:10:45;17.52;;;4.30;;
31618;SDS011;18230;51.502;7.108;2023-05-29T06:15:45;21.33;;;4.10;;
31618;SDS011;18230;51.502;7.108;2023-05-29T06:20:46;21.95;;;4.72;;
31618;SDS011;18230;51.502;7.108;2023-05-29T06:25:47;25.38;;;4.63;;
31618;SDS011;18230;51.502;7.108;2023-05-29T06:30:48;21.15;;;4.30;;
31618;SDS011;18230;51.502;7.108;2023-05-29T06:35:48;21.58;;;3.70;;
31618;SDS011;18230;51.502;7.108;2023-05-29T06:40:49;17.88;;;4.35;;
31618;SDS011;18230;51.502;7.108;2023-05-29T06:45:50;21.42;;;4.03;;
31618;SDS011;18230;51.502;7.108;2023-05-29T06:50:51;20.90;;;4.55;;
31618;SDS011;18230;51.502;7.108;2023-05-29T06:55:52;17.90;;;3.80;;
31618;SDS011;18230;51.502;7.108;2023-05-29T07:00:53;18.05;;;3.83;;
31618;SDS011;18230;51.502;7.108;2023-05-29T07:05:54;23.50;;;4.57;;
31618;SDS011;18230;51.502;7.108;2023-05-29T07:10:55;19.70;;;4.32;;
31618;SDS011;18230;51.502;7.108;2023-05-29T07:15:55;22.40;;;4.13;;
31618;SDS011;18230;51.502;7.108;2023-05-29T07:20:56;18.95;;;4.05;;
31618;SDS011;18230;51.502;7.108;2023-05-29T07:25:57;20.58;;;4.32;;
31618;SDS011;18230;51.502;7.108;2023-05-29T07:30:58;19.45;;;4.18;;
31618;SDS011;18230;51.502;7.108;2023-05-29T07:35:58;21.27;;;4.05;;
31618;SDS011;18230;51.502;7.108;2023-05-29T07:40:59;16.13;;;3.85;;
31618;SDS011;18230;51.502;7.108;2023-05-29T07:46:00;15.40;;;4.30;;
31618;SDS011;18230;51.502;7.108;2023-05-29T07:51:01;21.60;;;4.63;;
31618;SDS011;18230;51.502;7.108;2023-05-29T07:56:02;19.38;;;4.45;;
31618;SDS011;18230;51.502;7.108;2023-05-29T08:01:03;17.70;;;4.32;;
31618;SDS011;18230;51.502;7.108;2023-05-29T08:06:05;24.05;;;4.30;;
31618;SDS011;18230;51.502;7.108;2023-05-29T08:11:06;18.83;;;4.47;;
31618;SDS011;18230;51.502;7.108;2023-05-29T08:16:06;15.38;;;4.57;;
31618;SDS011;18230;51.502;7.108;2023-05-29T08:21:07;19.10;;;3.70;;
31618;SDS011;18230;51.502;7.108;2023-05-29T08:26:09;25.83;;;4.35;;
31618;SDS011;18230;51.502;7.108;2023-05-29T08:31:10;21.40;;;4.90;;
31618;SDS011;18230;51.502;7.108;2023-05-29T08:36:10;25.90;;;4.47;;
31618;SDS011;18230;51.502;7.108;2023-05-29T08:41:12;17.63;;;4.32;;
31618;SDS011;18230;51.502;7.108;2023-05-29T08:46:29;19.33;;;4.57;;
31618;SDS011;18230;51.502;7.108;2023-05-29T08:51:32;18.20;;;4.28;;
31618;SDS011;18230;51.502;7.108;2023-05-29T08:56:37;17.25;;;4.50;;
31618;SDS011;18230;51.502;7.108;2023-05-29T09:01:38;20.17;;;3.45;;
31618;SDS011;18230;51.502;7.108;2023-05-29T09:06:40;17.75;;;3.60;;
31618;SDS011;18230;51.502;7.108;2023-05-29T09:11:41;17.17;;;4.30;;
31618;SDS011;18230;51.502;7.108;2023-05-29T09:16:43;19.35;;;4.15;;
31618;SDS011;18230;51.502;7.108;2023-05-29T09:21:44;14.93;;;4.15;;
31618;SDS011;18230;51.502;7.108;2023-05-29T09:26:51;19.70;;;4.22;;
31618;SDS011;18230;51.502;7.108;2023-05-29T09:31:52;14.82;;;3.83;;
31618;SDS011;18230;51.502;7.108;2023-05-29T09:36:53;15.88;;;4.25;;
31618;SDS011;18230;51.502;7.108;2023-05-29T09:42:03;19.15;;;4.05;;
31618;SDS011;18230;51.502;7.108;2023-05-29T09:47:06;17.00;;;4.07;;
31618;SDS011;18230;51.502;7.108;2023-05-29T09:52:07;14.68;;;4.03;;
31618;SDS011;18230;51.502;7.108;2023-05-29T09:57:09;16.60;;;3.60;;
31618;SDS011;18230;51.502;7.108;2023-05-29T10:02:10;17.85;;;4.90;;
31618;SDS011;18230;51.502;7.108;2023-05-29T10:07:29;24.25;;;4.82;;
31618;SDS011;18230;51.502;7.108;2023-05-29T10:12:37;19.08;;;3.90;;
31618;SDS011;18230;51.502;7.108;2023-05-29T10:17:39;15.93;;;4.07;;
31618;SDS011;18230;51.502;7.108;2023-05-29T10:22:50;17.00;;;4.30;;
31618;SDS011;18230;51.502;7.108;2023-05-29T10:27:52;16.92;;;4.40;;
31618;SDS011;18230;51.502;7.108;2023-05-29T10:33:07;17.50;;;3.97;;
31618;SDS011;18230;51.502;7.108;2023-05-29T10:38:15;16.83;;;3.63;;
31618;SDS011;18230;51.502;7.108;2023-05-29T10:43:36;16.70;;;3.97;;
31618;SDS011;18230;51.502;7.108;2023-05-29T10:48:40;15.70;;;4.18;;
31618;SDS011;18230;51.502;7.108;2023-05-29T10:53:42;14.82;;;4.10;;
31618;SDS011;18230;51.502;7.108;2023-05-29T10:58:44;18.35;;;4.00;;
31618;SDS011;18230;51.502;7.108;2023-05-29T11:14:52;11.07;;;3.58;;
31618;SDS011;18230;51.502;7.108;2023-05-29T11:20:01;13.60;;;3.40;;
31618;SDS011;18230;51.502;7.108;2023-05-29T11:25:06;14.20;;;4.07;;
31618;SDS011;18230;51.502;7.108;2023-05-29T11:30:07;13.73;;;3.63;;
31618;SDS011;18230;51.502;7.108;2023-05-29T11:35:08;16.05;;;3.60;;
31618;SDS011;18230;51.502;7.108;2023-05-29T11:40:10;12.88;;;3.58;;
31618;SDS011;18230;51.502;7.108;2023-05-29T11:45:13;14.77;;;4.03;;
31618;SDS011;18230;51.502;7.108;2023-05-29T11:50:22;13.60;;;4.13;;
31618;SDS011;18230;51.502;7.108;2023-05-29T11:55:25;13.75;;;3.58;;
31618;SDS011;18230;51.502;7.108;2023-05-29T12:00:30;11.70;;;3.13;;
31618;SDS011;18230;51.502;7.108;2023-05-29T12:05:44;16.58;;;3.90;;
31618;SDS011;18230;51.502;7.108;2023-05-29T12:10:49;16.37;;;3.53;;
31618;SDS011;18230;51.502;7.108;2023-05-29T12:15:53;13.85;;;4.03;;
31618;SDS011;18230;51.502;7.108;2023-05-29T12:20:57;10.75;;;3.75;;
31618;SDS011;18230;51.502;7.108;2023-05-29T12:25:59;13.57;;;3.42;;
31618;SDS011;18230;51.502;7.108;2023-05-29T12:31:00;14.25;;;3.50;;
31618;SDS011;18230;51.502;7.108;2023-05-29T12:36:05;13.82;;;3.92;;
31618;SDS011;18230;51.502;7.108;2023-05-29T12:41:06;12.98;;;3.22;;
31618;SDS011;18230;51.502;7.108;2023-05-29T12:46:07;14.60;;;3.30;;
31618;SDS011;18230;51.502;7.108;2023-05-29T12:51:08;12.23;;;3.53;;
31618;SDS011;18230;51.502;7.108;2023-05-29T12:56:09;11.65;;;3.25;;
31618;SDS011;18230;51.502;7.108;2023-05-29T13:01:13;13.30;;;3.42;;
31618;SDS011;18230;51.502;7.108;2023-05-29T13:06:15;11.50;;;3.20;;
31618;SDS011;18230;51.502;7.108;2023-05-29T13:11:15;9.15;;;3.22;;
31618;SDS011;18230;51.502;7.108;2023-05-29T13:16:16;11.32;;;4.00;;
31618;SDS011;18230;51.502;7.108;2023-05-29T13:21:17;11.68;;;3.42;;
31618;SDS011;18230;51.502;7.108;2023-05-29T13:26:18;12.77;;;3.40;;
31618;SDS011;18230;51.502;7.108;2023-05-29T13:31:19;13.90;;;3.45;;
31618;SDS011;18230;51.502;7.108;2023-05-29T13:36:21;13.98;;;3.90;;
31618;SDS011;18230;51.502;7.108;2023-05-29T13:41:22;13.25;;;3.80;;
31618;SDS011;18230;51.502;7.108;2023-05-29T13:46:23;11.07;;;3.28;;
31618;SDS011;18230;51.502;7.108;2023-05-29T13:51:23;10.73;;;3.55;;
31618;SDS011;18230;51.502;7.108;2023-05-29T13:56:24;12.52;;;3.47;;
31618;SDS011;18230;51.502;7.108;2023-05-29T14:01:26;9.18;;;3.25;;
31618;SDS011;18230;51.502;7.108;2023-05-29T14:06:27;11.00;;;3.28;;
31618;SDS011;18230;51.502;7.108;2023-05-29T14:11:28;12.95;;;3.78;;
31618;SDS011;18230;51.502;7.108;2023-05-29T14:16:29;12.73;;;3.63;;
31618;SDS011;18230;51.502;7.108;2023-05-29T14:21:30;11.15;;;3.55;;
31618;SDS011;18230;51.502;7.108;2023-05-29T14:26:31;13.18;;;3.55;;
31618;SDS011;18230;51.502;7.108;2023-05-29T14:31:32;8.95;;;3.63;;
31618;SDS011;18230;51.502;7.108;2023-05-29T14:36:32;14.00;;;3.95;;
31618;SDS011;18230;51.502;7.108;2023-05-29T14:41:33;12.00;;;3.50;;
31618;SDS011;18230;51.502;7.108;2023-05-29T14:46:35;16.98;;;4.90;;
31618;SDS011;18230;51.502;7.108;2023-05-29T14:51:36;17.23;;;3.92;;
31618;SDS011;18230;51.502;7.108;2023-05-29T14:56:36;9.98;;;3.92;;
31618;SDS011;18230;51.502;7.108;2023-05-29T15:01:37;11.07;;;3.80;;
31618;SDS011;18230;51.502;7.108;2023-05-29T15:06:38;10.40;;;4.13;;
31618;SDS011;18230;51.502;7.108;2023-05-29T15:11:39;13.27;;;4.00;;
31618;SDS011;18230;51.502;7.108;2023-05-29T15:16:40;11.30;;;3.90;;
31618;SDS011;18230;51.502;7.108;2023-05-29T15:21:40;13.85;;;4.25;;
31618;SDS011;18230;51.502;7.108;2023-05-29T15:26:41;12.00;;;3.92;;
31618;SDS011;18230;51.502;7.108;2023-05-29T15:31:42;8.07;;;3.05;;
31618;SDS011;18230;51.502;7.108;2023-05-29T15:36:46;10.80;;;3.80;;
31618;SDS011;18230;51.502;7.108;2023-05-29T15:41:47;15.13;;;4.30;;
31618;SDS011;18230;51.502;7.108;2023-05-29T15:46:48;11.18;;;3.85;;
31618;SDS011;18230;51.502;7.108;2023-05-29T15:51:48;8.27;;;3.33;;
31618;SDS011;18230;51.502;7.108;2023-05-29T15:56:49;15.10;;;3.75;;
31618;SDS011;18230;51.502;7.108;2023-05-29T16:01:50;11.52;;;4.00;;
31618;SDS011;18230;51.502;7.108;2023-05-29T16:06:51;9.48;;;3.33;;
31618;SDS011;18230;51.502;7.108;2023-05-29T16:11:51;12.75;;;4.03;;
31618;SDS011;18230;51.502;7.108;2023-05-29T16:16:53;13.15;;;3.83;;
31618;SDS011;18230;51.502;7.108;2023-05-29T16:21:54;10.45;;;3.20;;
31618;SDS011;18230;51.502;7.108;2023-05-29T16:26:55;12.02;;;3.63;;
31618;SDS011;18230;51.502;7.108;2023-05-29T16:31:56;11.65;;;3.17;;
31618;SDS011;18230;51.502;7.108;2023-05-29T16:36:57;11.05;;;3.78;;
31618;SDS011;18230;51.502;7.108;2023-05-29T16:41:57;11.05;;;3.67;;
31618;SDS011;18230;51.502;7.108;2023-05-29T16:46:58;11.57;;;3.78;;
31618;SDS011;18230;51.502;7.108;2023-05-29T16:51:59;12.35;;;3.97;;
31618;SDS011;18230;51.502;7.108;2023-05-29T16:57:00;12.05;;;4.07;;
31618;SDS011;18230;51.502;7.108;2023-05-29T17:02:02;12.75;;;4.00;;
31618;SDS011;18230;51.502;7.108;2023-05-29T17:07:03;12.63;;;5.57;;
31618;SDS011;18230;51.502;7.108;2023-05-29T17:12:04;13.65;;;4.85;;
31618;SDS011;18230;51.502;7.108;2023-05-29T17:17:05;14.40;;;3.97;;
31618;SDS011;18230;51.502;7.108;2023-05-29T17:22:06;11.55;;;3.78;;
31618;SDS011;18230;51.502;7.108;2023-05-29T17:27:07;9.07;;;3.42;;
31618;SDS011;18230;51.502;7.108;2023-05-29T17:32:08;9.07;;;3.40;;
31618;SDS011;18230;51.502;7.108;2023-05-29T17:37:10;14.00;;;4.05;;
31618;SDS011;18230;51.502;7.108;2023-05-29T17:42:11;18.48;;;4.18;;
31618;SDS011;18230;51.502;7.108;2023-05-29T17:47:11;10.27;;;4.05;;
31618;SDS011;18230;51.502;7.108;2023-05-29T17:52:15;18.00;;;4.20;;
31618;SDS011;18230;51.502;7.108;2023-05-29T17:57:31;12.23;;;4.00;;
31618;SDS011;18230;51.502;7.108;2023-05-29T18:02:32;13.02;;;3.78;;
31618;SDS011;18230;51.502;7.108;2023-05-29T18:07:33;14.55;;;4.22;;
31618;SDS011;18230;51.502;7.108;2023-05-29T18:12:34;14.88;;;3.90;;
31618;SDS011;18230;51.502;7.108;2023-05-29T18:17:35;10.75;;;3.42;;
31618;SDS011;18230;51.502;7.108;2023-05-29T18:22:35;12.32;;;3.63;;
31618;SDS011;18230;51.502;7.108;2023-05-29T18:27:36;12.70;;;4.05;;
31618;SDS011;18230;51.502;7.108;2023-05-29T18:32:37;11.30;;;4.00;;
31618;SDS011;18230;51.502;7.108;2023-05-29T18:37:38;12.65;;;3.72;;
31618;SDS011;18230;51.502;7.108;2023-05-29T18:42:39;14.57;;;4.07;;
31618;SDS011;18230;51.502;7.108;2023-05-29T18:47:40;14.17;;;3.97;;
31618;SDS011;18230;51.502;7.108;2023-05-29T18:52:42;15.38;;;4.88;;
31618;SDS011;18230;51.502;7.108;2023-05-29T18:57:42;12.20;;;3.78;;
31618;SDS011;18230;51.502;7.108;2023-05-29T19:02:50;14.35;;;3.90;;
31618;SDS011;18230;51.502;7.108;2023-05-29T19:07:52;11.63;;;3.97;;
31618;SDS011;18230;51.502;7.108;2023-05-29T19:12:54;13.55;;;3.58;;
31618;SDS011;18230;51.502;7.108;2023-05-29T19:17:54;19.80;;;4.43;;
31618;SDS011;18230;51.502;7.108;2023-05-29T19:22:56;14.98;;;3.25;;
31618;SDS011;18230;51.502;7.108;2023-05-29T19:27:57;12.93;;;3.33;;
31618;SDS011;18230;51.502;7.108;2023-05-29T19:32:58;10.60;;;3.03;;
31618;SDS011;18230;51.502;7.108;2023-05-29T19:37:59;13.73;;;3.95;;
31618;SDS011;18230;51.502;7.108;2023-05-29T19:42:59;17.10;;;3.97;;
31618;SDS011;18230;51.502;7.108;2023-05-29T19:48:00;12.63;;;3.90;;
31618;SDS011;18230;51.502;7.108;2023-05-29T19:53:01;13.25;;;3.75;;
31618;SDS011;18230;51.502;7.108;2023-05-29T19:58:03;15.82;;;3.65;;
31618;SDS011;18230;51.502;7.108;2023-05-29T20:03:04;14.40;;;3.80;;
31618;SDS011;18230;51.502;7.108;2023-05-29T20:08:05;16.02;;;3.88;;
31618;SDS011;18230;51.502;7.108;2023-05-29T20:13:06;12.75;;;3.75;;
31618;SDS011;18230;51.502;7.108;2023-05-29T20:18:07;14.07;;;3.45;;
31618;SDS011;18230;51.502;7.108;2023-05-29T20:23:07;10.65;;;3.38;;
31618;SDS011;18230;51.502;7.108;2023-05-29T20:28:08;12.60;;;3.53;;
31618;SDS011;18230;51.502;7.108;2023-05-29T20:33:09;14.32;;;3.72;;
31618;SDS011;18230;51.502;7.108;2023-05-29T20:38:10;12.32;;;3.38;;
31618;SDS011;18230;51.502;7.108;2023-05-29T20:43:13;14.10;;;3.53;;
31618;SDS011;18230;51.502;7.108;2023-05-29T20:48:14;9.25;;;3.17;;
31618;SDS011;18230;51.502;7.108;2023-05-29T20:53:15;15.18;;;3.78;;
31618;SDS011;18230;51.502;7.108;2023-05-29T20:58:15;9.88;;;3.28;;
31618;SDS011;18230;51.502;7.108;2023-05-29T21:03:16;13.35;;;3.13;;
31618;SDS011;18230;51.502;7.108;2023-05-29T21:08:17;15.75;;;3.63;;
31618;SDS011;18230;51.502;7.108;2023-05-29T21:13:18;12.55;;;3.63;;
31618;SDS011;18230;51.502;7.108;2023-05-29T21:18:19;11.93;;;3.13;;
31618;SDS011;18230;51.502;7.108;2023-05-29T21:23:20;13.00;;;3.17;;
31618;SDS011;18230;51.502;7.108;2023-05-29T21:28:21;14.35;;;3.05;;
31618;SDS011;18230;51.502;7.108;2023-05-29T21:33:22;12.88;;;3.33;;
31618;SDS011;18230;51.502;7.108;2023-05-29T21:38:25;12.75;;;3.42;;
31618;SDS011;18230;51.502;7.108;2023-05-29T21:43:26;13.80;;;3.22;;
31618;SDS011;18230;51.502;7.108;2023-05-29T21:48:27;18.42;;;3.78;;
31618;SDS011;18230;51.502;7.108;2023-05-29T21:53:28;13.18;;;3.10;;
31618;SDS011;18230;51.502;7.108;2023-05-29T21:58:28;14.25;;;3.00;;
31618;SDS011;18230;51.502;7.108;2023-05-29T22:03:29;15.80;;;3.72;;
31618;SDS011;18230;51.502;7.108;2023-05-29T22:08:40;16.15;;;3.33;;
31618;SDS011;18230;51.502;7.108;2023-05-29T22:13:41;13.20;;;3.33;;
31618;SDS011;18230;51.502;7.108;2023-05-29T22:18:42;14.43;;;3.20;;
31618;SDS011;18230;51.502;7.108;2023-05-29T22:23:45;13.13;;;2.67;;
31618;SDS011;18230;51.502;7.108;2023-05-29T22:28:46;12.23;;;3.00;;
31618;SDS011;18230;51.502;7.108;2023-05-29T22:33:47;17.40;;;3.40;;
31618;SDS011;18230;51.502;7.108;2023-05-29T22:38:48;18.52;;;3.67;;
31618;SDS011;18230;51.502;7.108;2023-05-29T22:43:49;20.60;;;3.40;;
31618;SDS011;18230;51.502;7.108;2023-05-29T22:48:50;16.30;;;2.97;;
31618;SDS011;18230;51.502;7.108;2023-05-29T22:53:53;20.05;;;3.35;;
31618;SDS011;18230;51.502;7.108;2023-05-29T22:58:53;14.43;;;3.13;;
31618;SDS011;18230;51.502;7.108;2023-05-29T23:03:55;12.88;;;2.70;;
31618;SDS011;18230;51.502;7.108;2023-05-29T23:08:59;18.77;;;3.45;;
31618;SDS011;18230;51.502;7.108;2023-05-29T23:14:01;21.73;;;3.10;;
31618;SDS011;18230;51.502;7.108;2023-05-29T23:19:02;17.75;;;3.03;;
31618;SDS011;18230;51.502;7.108;2023-05-29T23:24:03;15.70;;;3.15;;
31618;SDS011;18230;51.502;7.108;2023-05-29T23:29:04;12.52;;;2.85;;
31618;SDS011;18230;51.502;7.108;2023-05-29T23:34:05;15.55;;;3.30;;
31618;SDS011;18230;51.502;7.108;2023-05-29T23:39:06;19.10;;;3.42;;
31618;SDS011;18230;51.502;7.108;2023-05-29T23:44:07;16.55;;;3.22;;
31618;SDS011;18230;51.502;7.108;2023-05-29T23:49:11;19.85;;;2.95;;
31618;SDS011;18230;51.502;7.108;2023-05-29T23:54:12;21.75;;;3.60;;
31618;SDS011;18230;51.502;7.108;2023-05-29T23:59:13;20.05;;;3.63;;
